Weather observations for the past three days for
Grangeville - Idaho County Airport
Metric (Imperial)
Date Time (pdt) Wind (kph) Vis. (km) Weather Sky Cond. Temperature (ºC) Relative Humidity Wind Chill (°C) Heat Index (°C) Pressure Precipitation (cm)
Air Dwpt 6 hour altimeter (cm) sea level (mb) 1 hr 3 hr 6 hr
Max. Min.
07 05:15 Calm 16.09 Fair CLR 10 3 62% 76.15 0.0
07 04:55 S 6 16.09 Fair CLR 7 3 76% 76.15 0.0
07 04:35 Calm 16.09 Fair CLR 8 4 76% 76.15 0.0
07 03:55 E 9 16.09 Fair CLR 8 5 82% 7 76.15 0.0
07 03:35 Calm 16.09 Fair CLR 8 4 76% 76.15 0.0
07 03:15 E 6 16.09 Fair CLR 12 4 58% 76.15 0.0
07 02:55 Calm 16.09 Fair CLR 10 4 67% 76.12 0.0
07 02:35 S 11 16.09 Fair CLR 8 5 82% 6 76.1 0.0
07 02:15 SW 6 16.09 Fair CLR 12 5 63% 76.12 0.0
07 01:55 SW 7 16.09 Fair CLR 12 5 63% 76.12 0.0
07 01:35 Calm 16.09 Fair CLR 13 5 59% 76.1 0.0
07 01:15 NW 6 16.09 Fair CLR 12 5 63% 76.1 0.0
07 00:55 SW 15 16.09 Fair CLR 15 5 51% 76.1 0.0
07 00:35 SW 19 16.09 Fair CLR 15 5 51% 76.1 0.0
07 00:15 SW 11 16.09 Fair CLR 13 5 59% 76.07 0.0
06 23:55 SW 9 16.09 Fair CLR 15 5 51% 76.07 0.0
06 23:35 SW 15 16.09 Partly Cloudy SCT075 15 5 51% 76.07 0.0
06 23:15 SW 19 16.09 Partly Cloudy SCT075 16 5 48% 76.05 0.0
06 22:55 SW 15 16.09 Fair CLR 16 5 48% 76.05 0.0
06 22:35 SW 15 16.09 Fair CLR 15 5 51% 76.07 0.0
06 22:15 SW 15 16.09 Fair CLR 15 6 55% 76.07 0.0
06 21:35 Calm 16.09 Fair CLR 15 9 68% 76.07 0.0
06 21:15 S 6 16.09 Fair CLR 14 10 77% 76.07 0.0
06 21:00 SE 7 16.09 Fair CLR 15 10 72% 76.1 0.0
06 20:15 Calm 16.09 Fair CLR 17 8 56% 76.07 0.0
06 19:55 Calm 16.09 Fair CLR 17 10 64% 76.07 0.0
06 19:35 Calm 16.09 Fair CLR 18 9 56% 76.07 0.0
06 18:55 Calm 16.09 Fair CLR 19 10 56% 76.05 0.0
06 18:35 Calm 16.09 Partly Cloudy SCT080 SCT090 19 11 60% 76.05 0.0
06 18:15 NE 6 16.09 Overcast OVC080 19 10 56% 76.05 0.0
06 17:35 N 9 16.09 Partly Cloudy SCT090 20 10 53% 76.05 0.0
06 17:15 N 11 16.09 Partly Cloudy SCT090 20 10 53% 76.05 0.0
06 17:00 NE 13 16.09 Fair CLR 20 10 53% 76.02 0.0
06 16:30 NE 9 16.09 Partly Cloudy SCT085 20 10 53% 76.02 0.0
06 15:15 N 20 11.27 Mostly Cloudy SCT070 BKN085 BKN110 22 11 50% 76.07 0.0
06 14:55 N 13 16.09 Partly Cloudy SCT085 23 10 44% 76.07 0.0
06 14:15 NW 19 16.09 Fair CLR 23 8 38% 76.1 0.0
06 13:55 W 13 16.09 Fair CLR 22 8 41% 76.12 0.0
06 13:35 W 13 G 30 16.09 Fair CLR 22 8 41% 76.12 0.0
06 13:15 W 9 16.09 Fair CLR 22 7 38% 76.12 0.0
06 12:55 SW 17 G 26 16.09 Fair CLR 22 8 41% 76.12 0.0
06 12:10 SW 22 G 30 16.09 Fair CLR 21 7 40% 76.15 0.0
06 11:55 W 19 16.09 Fair CLR 21 7 40% 76.17 0.0
06 11:35 W 17 16.09 Fair CLR 21 7 40% 76.17 0.0
06 11:15 SW 13 16.09 Fair CLR 21 6 38% 76.2 0.0
06 10:55 SW 20 G 28 16.09 Fair CLR 20 6 40% 76.17 0.0
06 10:35 Calm 16.09 Fair CLR 18 8 52% 76.2 0.0
06 10:15 E 6 16.09 Fair CLR 17 7 52% 76.17 0.0
06 09:55 NE 6 16.09 Fair CLR 17 7 52% 76.2 0.0
06 09:35 E 7 16.09 Fair CLR 16 7 55% 76.2 0.0
06 09:15 NE 7 16.09 Fair CLR 15 6 55% 76.2 0.0
06 08:55 Calm 16.09 Fair CLR 14 6 59% 76.23 0.0
06 08:35 Calm 16.09 Fair CLR 13 6 63% 76.23 0.0
06 08:15 Calm 16.09 Fair CLR 12 5 63% 76.25 0.0
06 07:55 Calm 16.09 Fair CLR 11 4 62% 76.25 0.0
06 07:15 Calm 16.09 Partly Cloudy SCT075 10 5 71% 76.25 0.0
06 07:00 E 6 16.09 Partly Cloudy SCT075 SCT085 8 4 76% 76.23 0.0
06 06:15 Calm 16.09 Mostly Cloudy BKN080 7 3 76% 76.2 0.0
06 05:55 S 6 16.09 Mostly Cloudy BKN080 6 2 76% 76.2 0.0
06 05:35 Calm 16.09 Mostly Cloudy BKN080 5 2 81% 76.2 0.0
06 05:15 Calm 16.09 Overcast OVC080 6 2 76% 76.17 0.0
06 04:55 Calm 16.09 Overcast BKN070 OVC080 6 2 76% 76.17 0.0
06 04:35 Calm 16.09 Mostly Cloudy BKN080 6 2 76% 76.17 0.0
06 04:15 Calm 16.09 Partly Cloudy SCT080 SCT090 6 2 76% 76.17 0.0
06 03:55 Calm 16.09 Partly Cloudy SCT090 5 2 81% 76.17 0.0
06 03:35 W 6 16.09 Mostly Cloudy BKN090 5 1 76% 76.17 0.0
06 03:15 Calm 16.09 Mostly Cloudy BKN080 5 2 81% 76.15 0.0
06 02:55 Calm 16.09 Partly Cloudy SCT080 5 1 76% 76.15 0.0
06 02:35 S 6 16.09 Fair CLR 6 1 71% 76.15 0.0
06 02:15 Calm 16.09 Partly Cloudy SCT080 7 1 66% 76.12 0.0
06 01:55 Calm 16.09 Partly Cloudy SCT080 6 2 76% 76.12 0.0
06 01:35 Calm 16.09 Fair CLR 7 1 66% 76.12 0.0
06 01:15 S 7 16.09 Fair CLR 7 2 71% 6 76.1 0.0
06 00:55 SW 7 16.09 Fair CLR 6 2 76% 5 76.1 0.0
06 00:35 Calm 16.09 Fair CLR 7 2 71% 76.1 0.0
06 00:15 Calm 16.09 Fair CLR 6 2 76% 76.07 0.0
05 23:55 S 7 16.09 Fair CLR 7 2 71% 6 76.07 0.0
05 23:35 S 6 16.09 Fair CLR 7 2 71% 76.07 0.0
05 23:15 SW 6 16.09 Fair CLR 8 2 66% 76.07 0.0
05 22:55 SW 7 16.09 Fair CLR 10 2 58% 9 76.07 0.0
05 22:35 S 7 16.09 Fair CLR 9 2 62% 8 76.05 0.0
05 22:15 SW 7 16.09 Fair CLR 9 2 62% 8 76.02 0.0
05 21:55 Calm 16.09 Fair CLR 11 2 54% 76.02 0.0
05 21:35 Calm 16.09 Fair CLR 12 2 51% 76.02 0.0
05 21:15 W 6 16.09 Fair CLR 12 2 51% 76.02 0.0
05 20:55 W 7 16.09 Fair CLR 12 3 54% 76 0.0
05 20:35 W 9 16.09 Fair CLR 12 3 54% 76 0.0
05 19:55 NW 9 16.09 Fair CLR 13 4 55% 75.95 0.0
05 19:35 NW 11 16.09 Fair CLR 15 5 51% 75.92 0.0
05 19:15 NW 11 16.09 Fair CLR 16 5 48% 75.92 0.0
05 18:55 NW 15 16.09 Fair CLR 17 5 45% 75.92 0.0
05 18:35 NW 20 16.09 Fair CLR 18 5 43% 75.92 0.0
05 18:15 NW 20 16.09 Fair CLR 18 4 40% 75.9 0.0
05 17:55 NW 22 16.09 Fair CLR 19 5 40% 75.92 0.0
05 17:35 N 17 16.09 Partly Cloudy SCT070 SCT085 20 5 38% 75.9 0.0
05 16:50 N 20 G 28 16.09 Partly Cloudy SCT070 20 4 35% 75.92 0.0
05 16:10 NW 17 16.09 Partly Cloudy SCT070 SCT100 20 5 38% 75.92 0.0
05 15:55 N 9 16.09 Fair CLR 20 5 38% 75.95 0.0
05 15:35 N 17 16.09 Fair CLR 20 4 35% 75.95 0.0
05 15:15 NW 17 G 26 16.09 Fair CLR 20 5 38% 75.95 0.0
05 14:55 N 15 16.09 Fair CLR 20 4 35% 75.97 0.0
05 14:35 N 17 G 30 16.09 Partly Cloudy SCT065 20 5 38% 75.97 0.0
05 14:15 NE 9 G 30 16.09 Partly Cloudy SCT065 19 4 37% 75.97 0.0
05 13:55 E 9 16.09 Partly Cloudy SCT065 18 4 40% 76 0.0
05 13:35 NW 7 16.09 Partly Cloudy SCT065 18 5 43% 76 0.0
05 13:15 Calm 16.09 Fair CLR 18 4 40% 76 0.0
05 13:00 N 13 16.09 Fair CLR 18 5 43% 76 0.0
05 12:15 E 11 16.09 Fair CLR 17 5 45% 76.02 0.0
05 11:55 E 11 16.09 Partly Cloudy SCT075 17 6 49% 76.02 0.0
05 11:15 E 9 16.09 Fair CLR 16 8 59% 76.02 0.0
05 10:55 NE 9 16.09 Fair CLR 16 8 59% 76.02 0.0
05 10:35 E 6 16.09 Fair CLR 15 7 59% 76.02 0.0
05 10:15 NE 6 16.09 Fair CLR 15 7 59% 76.02 0.0
05 10:00 Calm 16.09 Fair CLR 15 7 59% 76 0.0
05 09:10 Calm 16.09 Fair CLR 13 7 67% 76 0.0
05 08:35 Calm 16.09 Fair CLR 11 6 72% 76 0.0
05 08:15 Calm 16.09 Fair CLR 11 6 72% 76 0.0
05 07:55 Calm 16.09 Fair CLR 10 4 67% 75.97 0.0
05 07:35 Calm 16.09 Fair CLR 10 4 67% 75.97 0.0
05 07:15 Calm 16.09 Fair CLR 9 5 76% 75.97 0.0
05 06:55 Calm 16.09 Fair CLR 8 5 82% 75.95 0.0
05 06:35 Calm 16.09 Fair CLR 5 5 100% 75.95 0.0
05 06:15 Calm 11.27 Fair CLR 5 3 87% 75.92 0.0
05 05:55 Calm 16.09 Fair CLR 5 3 87% 75.9 0.0
05 05:35 Calm 16.09 Fair CLR 5 3 87% 75.9 0.0
05 05:15 Calm 16.09 Fair CLR 5 3 87% 75.9 0.0
05 04:55 Calm 16.09 Fair CLR 5 3 87% 75.87 0.0
05 04:35 S 6 16.09 Fair CLR 7 3 76% 75.87 0.0
05 04:15 Calm 16.09 Fair CLR 6 3 81% 75.87 0.0
05 03:55 Calm 16.09 Fair CLR 7 5 87% 75.84 0.0
05 03:35 Calm 16.09 Fair CLR 6 5 93% 75.84 0.0
05 03:15 S 7 16.09 Fair CLR 6 5 93% 5 75.82 0.0
05 02:55 SW 9 16.09 Fair CLR 6 5 93% 4 75.82 0.0
05 02:35 Calm 16.09 Fair CLR 6 5 93% 75.82 0.0
05 02:15 Calm 16.09 Fair CLR 6 5 93% 75.82 0.0
05 01:55 Calm 16.09 Fair CLR 6 5 93% 75.79 0.0
05 01:35 Calm 16.09 Fair CLR 7 5 87% 75.79 0.0
05 01:15 Calm 16.09 Fair CLR 8 5 82% 75.82 0.0
05 00:55 Calm 16.09 Fair CLR 7 5 87% 75.82 0.0
05 00:35 S 6 16.09 Fair CLR 8 6 87% 75.82 0.0
05 00:15 Calm 16.09 Fair CLR 9 6 82% 75.79 0.0
04 23:55 NW 6 16.09 Fair CLR 8 6 87% 75.77 0.0
04 23:35 Calm 16.09 Fair CLR 10 6 76% 75.74 0.0
04 23:15 S 6 16.09 Fair CLR 10 6 76% 75.74 0.0
04 22:55 Calm 16.09 Fair CLR 10 6 76% 75.74 0.0
04 22:35 SE 6 16.09 Fair CLR 11 7 77% 75.74 0.0
04 22:15 E 9 16.09 Fair CLR 12 7 72% 75.74 0.0
04 21:55 E 9 16.09 Fair CLR 12 7 72% 75.74 0.0
04 21:35 NE 13 16.09 Partly Cloudy SCT085 12 7 72% 75.74 0.0
04 21:15 NE 7 16.09 Mostly Cloudy BKN085 14 7 63% 75.72 0.0
04 20:55 Calm 16.09 Fair CLR 15 7 59% 75.69 0.0
04 20:35 Calm 16.09 Partly Cloudy SCT090 16 6 52% 75.69 0.0
04 20:15 Calm 16.09 Mostly Cloudy BKN090 16 6 52% 75.67 0.0
04 19:55 Calm 16.09 Partly Cloudy SCT100 16 7 55% 75.67 0.0
04 19:35 Calm 16.09 Partly Cloudy SCT110 17 7 52% 75.64 0.0
04 19:15 NW 11 16.09 Partly Cloudy SCT100 18 7 49% 75.64 0.0
04 18:55 NW 11 16.09 Fair CLR 18 7 49% 75.64 0.0
04 18:35 NW 13 16.09 Fair CLR 20 7 43% 75.64 0.0
04 18:15 NW 13 16.09 Fair CLR 20 7 43% 75.64 0.0
04 17:55 NW 19 16.09 Fair CLR 21 7 40% 75.64 0.0
04 17:35 NW 13 16.09 Fair CLR 21 6 38% 75.64 0.0
04 17:15 NW 20 16.09 Fair CLR 21 5 35% 75.64 0.0
04 16:55 N 19 G 28 16.09 Fair CLR 22 5 33% 75.64 0.0
04 16:35 N 20 G 31 16.09 Fair CLR 21 4 33% 75.64 0.0
04 16:15 N 20 G 28 16.09 Fair CLR 21 6 38% 75.67 0.0
04 15:30 N 15 G 26 16.09 Fair CLR 22 6 36% 75.67 0.0
04 15:15 N 19 16.09 Fair CLR 22 7 38% 75.67 0.0
04 14:55 N 17 16.09 Partly Cloudy SCT070 22 7 38% 75.69 0.0
04 14:35 N 15 16.09 Partly Cloudy SCT070 22 8 41% 75.69 0.0
04 14:15 Calm 16.09 Fair CLR 22 7 38% 75.72 0.0
04 13:55 NE 11 16.09 Fair CLR 22 10 47% 75.72 0.0
04 13:35 N 9 16.09 Fair CLR 21 8 43% 75.72 0.0
04 13:15 NE 9 16.09 Fair CLR 21 8 43% 75.72 0.0
04 12:55 E 9 16.09 Fair CLR 21 8 43% 75.72 0.0
04 12:35 E 9 16.09 Fair CLR 21 9 46% 75.74 0.0
04 12:15 Calm 16.09 Fair CLR 20 8 46% 75.74 0.0
04 11:55 E 7 16.09 Fair CLR 20 8 46% 75.74 0.0
04 11:35 E 7 16.09 Fair CLR 20 9 49% 75.74 0.0
04 11:15 E 11 16.09 Fair CLR 20 10 53% 75.74 0.0
04 10:55 E 6 16.09 Fair CLR 19 8 49% 75.77 0.0
04 10:35 E 7 16.09 Fair CLR 19 9 52% 75.77 0.0
04 10:15 NE 7 16.09 Fair CLR 18 8 52% 75.77 0.0
04 09:55 NE 6 16.09 Fair CLR 17 7 52% 75.77 0.0
04 09:35 Calm 16.09 Fair CLR 17 7 52% 75.77 0.0
04 09:15 Calm 16.09 Fair CLR 16 6 52% 75.79 0.0
04 08:55 Calm 16.09 Fair CLR 15 6 55% 75.79 0.0
04 08:40 N 6 16.09 Fair CLR 14 6 59% 75.79 0.0
04 08:15 N 6 16.09 Fair CLR 13 4 55% 75.84 0.0
04 07:50 Calm 16.09 Fair CLR 12 3 54% 75.84 0.0
04 07:35 Calm 16.09 Fair CLR 11 5 67% 75.84 0.0
04 07:15 Calm 16.09 Fair CLR 10 5 71% 75.82 0.0
04 06:55 Calm 16.09 Fair CLR 8 3 71% 75.82 0.0
04 06:35 Calm 16.09 Fair CLR 8 3 71% 75.82 0.0
04 06:15 Calm 16.09 Fair CLR 8 1 62% 75.79 0.0
04 05:55 SE 7 16.09 Fair CLR 6 1 71% 5 75.79 0.0
04 05:35 Calm 16.09 Fair CLR 6 0 66% 75.79 0.0
Date Time (pdt) Wind (kph) Vis. (km) Weather Sky Cond. Air Dwpt Max. Min. Relative Humidity Wind Chill (°C) Heat Index (°C) altimeter (cm) sea level (mb) 1 hr 3 hr 6 hr
6 hour
Temperature (ºC) Pressure Precipitation (cm)